createdAt,value
2018-01-07T00:02:24.069Z,2.37
2018-01-07T00:04:51.519Z,3.17
2018-01-07T00:07:18.972Z,2.30
2018-01-07T00:09:46.572Z,2.80
2018-01-07T00:12:14.023Z,2.50
2018-01-07T00:14:41.669Z,3.97
2018-01-07T00:17:09.129Z,3.93
2018-01-07T00:19:36.951Z,1.30
2018-01-07T00:22:04.397Z,1.93
2018-01-07T00:24:31.857Z,1.17
2018-01-07T00:26:59.392Z,2.30
2018-01-07T00:29:26.846Z,3.33
2018-01-07T00:31:54.468Z,3.07
2018-01-07T00:34:22.045Z,2.67
2018-01-07T00:36:49.493Z,2.17
2018-01-07T00:39:17.330Z,1.93
2018-01-07T00:41:44.840Z,3.47
2018-01-07T00:44:12.421Z,1.67
2018-01-07T00:46:39.884Z,2.30
2018-01-07T00:49:07.421Z,2.20
2018-01-07T00:51:35.078Z,3.03
2018-01-07T00:54:02.593Z,1.17
2018-01-07T00:56:30.123Z,3.67
2018-01-07T00:58:57.741Z,1.53
2018-01-07T01:01:25.265Z,2.73
2018-01-07T01:03:52.784Z,2.63
2018-01-07T01:06:20.570Z,2.37
2018-01-07T01:08:48.324Z,2.70
2018-01-07T01:11:15.781Z,1.23
2018-01-07T01:13:43.423Z,1.80
2018-01-07T01:16:10.938Z,2.80
2018-01-07T01:18:38.384Z,1.13
2018-01-07T01:21:06.044Z,1.63
2018-01-07T01:23:33.550Z,2.67
2018-01-07T01:26:01.030Z,1.87
2018-01-07T01:28:28.768Z,1.70
2018-01-07T01:30:56.245Z,1.70
2018-01-07T01:33:23.720Z,0.93
2018-01-07T01:35:51.186Z,1.40
2018-01-07T01:38:18.661Z,1.33
2018-01-07T01:40:46.116Z,1.27
2018-01-07T01:43:13.664Z,2.20
2018-01-07T01:45:41.125Z,1.10
2018-01-07T01:48:08.740Z,1.40
2018-01-07T01:50:36.194Z,1.80
2018-01-07T01:53:03.681Z,1.97
2018-01-07T01:55:31.137Z,2.40
2018-01-07T01:57:58.705Z,2.03
2018-01-07T02:00:26.492Z,1.80
2018-01-07T02:02:54.065Z,1.13
2018-01-07T02:05:22.272Z,1.27
2018-01-07T02:07:49.733Z,1.40
2018-01-07T02:10:17.216Z,1.30
2018-01-07T02:12:44.861Z,1.83
2018-01-07T02:15:12.439Z,2.20
2018-01-07T02:17:39.892Z,0.50
2018-01-07T02:20:07.349Z,1.10
2018-01-07T02:22:34.809Z,1.33
2018-01-07T02:25:02.265Z,1.13
2018-01-07T02:27:29.753Z,1.00
2018-01-07T02:29:57.188Z,2.47
2018-01-07T02:32:24.850Z,0.87
2018-01-07T02:34:52.322Z,1.40
2018-01-07T02:37:19.777Z,1.10
2018-01-07T02:39:48.161Z,1.13
2018-01-07T02:42:15.613Z,3.23
2018-01-07T02:44:43.089Z,0.73
2018-01-07T02:47:10.634Z,2.37
2018-01-07T02:49:38.268Z,1.90
2018-01-07T02:52:05.857Z,1.53
2018-01-07T02:54:33.633Z,3.20
2018-01-07T02:57:01.256Z,1.00
2018-01-07T02:59:28.842Z,0.80
2018-01-07T03:01:56.677Z,0.73
2018-01-07T03:04:24.135Z,0.97
2018-01-07T03:06:51.692Z,1.43
2018-01-07T03:09:19.160Z,2.47
2018-01-07T03:11:46.617Z,1.20
2018-01-07T03:14:14.077Z,0.70
2018-01-07T03:16:41.560Z,2.17
2018-01-07T03:19:09.115Z,1.03
2018-01-07T03:21:36.679Z,1.80
2018-01-07T03:24:04.354Z,1.83
2018-01-07T03:26:31.929Z,1.00
2018-01-07T03:28:59.393Z,2.73
2018-01-07T03:31:27.608Z,2.67
2018-01-07T03:33:55.093Z,3.43
2018-01-07T03:36:22.861Z,2.40
2018-01-07T03:38:50.485Z,2.40
2018-01-07T03:41:18.186Z,2.10
2018-01-07T03:43:45.708Z,3.87
2018-01-07T03:46:13.184Z,3.03
2018-01-07T03:48:40.670Z,3.57
2018-01-07T03:51:08.183Z,2.60
2018-01-07T03:53:35.626Z,2.60
2018-01-07T03:56:03.097Z,2.07
2018-01-07T03:58:30.585Z,3.60
2018-01-07T04:00:58.230Z,3.37
2018-01-07T04:03:25.681Z,2.63
2018-01-07T04:05:53.218Z,3.07
2018-01-07T04:08:20.752Z,2.90
2018-01-07T04:10:48.409Z,2.17
2018-01-07T04:13:15.961Z,2.60
2018-01-07T04:15:43.738Z,3.97
2018-01-07T04:18:12.006Z,2.43
2018-01-07T04:20:39.469Z,2.50
2018-01-07T04:23:06.925Z,1.63
2018-01-07T04:25:35.384Z,2.40
2018-01-07T04:28:02.859Z,1.40
2018-01-07T04:30:30.309Z,3.57
2018-01-07T04:32:57.853Z,4.40
2018-01-07T04:35:25.532Z,2.00
2018-01-07T04:37:53.201Z,2.07
2018-01-07T04:40:20.664Z,3.23
2018-01-07T04:42:48.128Z,2.50
2018-01-07T04:45:16.608Z,2.17
2018-01-07T04:47:44.374Z,2.17
2018-01-07T04:50:11.994Z,1.73
2018-01-07T04:52:39.652Z,1.20
2018-01-07T04:55:07.345Z,1.60
2018-01-07T04:57:34.988Z,1.67
2018-01-07T05:00:02.481Z,2.30
2018-01-07T05:02:29.936Z,0.77
2018-01-07T05:04:57.383Z,2.40
2018-01-07T05:07:24.860Z,2.77
2018-01-07T05:09:52.304Z,2.60
2018-01-07T05:12:19.756Z,2.93
2018-01-07T05:14:47.321Z,3.00
2018-01-07T05:17:14.785Z,1.87
2018-01-07T05:19:42.405Z,3.57
2018-01-07T05:22:09.894Z,4.43
2018-01-07T05:24:37.457Z,2.30
2018-01-07T05:27:04.905Z,2.60
2018-01-07T05:29:32.569Z,3.50
2018-01-07T05:32:00.141Z,4.03
2018-01-07T05:34:27.596Z,2.40
2018-01-07T05:36:55.361Z,3.30
2018-01-07T05:39:23.020Z,2.07
2018-01-07T05:41:50.493Z,1.20
2018-01-07T05:44:17.947Z,1.90
2018-01-07T05:46:45.393Z,2.33
2018-01-07T05:49:12.965Z,2.50
2018-01-07T05:51:40.647Z,1.47
2018-01-07T05:54:08.188Z,1.43
2018-01-07T05:56:35.810Z,2.07
2018-01-07T05:59:03.406Z,2.70
2018-01-07T06:01:31.065Z,3.80
2018-01-07T06:03:58.621Z,2.33
2018-01-07T06:06:26.072Z,1.47
2018-01-07T06:08:53.650Z,2.43
2018-01-07T06:11:21.096Z,1.53
2018-01-07T06:13:48.654Z,2.47
2018-01-07T06:16:16.107Z,1.87
2018-01-07T06:18:43.689Z,1.73
2018-01-07T06:21:11.139Z,0.90
2018-01-07T06:23:38.609Z,2.10
2018-01-07T06:26:06.255Z,2.30
2018-01-07T06:28:33.784Z,1.37
2018-01-07T06:31:01.229Z,1.20
2018-01-07T06:33:28.691Z,1.73
2018-01-07T06:35:56.145Z,1.70
2018-01-07T06:38:23.657Z,2.30
2018-01-07T06:40:51.113Z,0.90
2018-01-07T06:43:18.561Z,1.90
2018-01-07T06:45:46.341Z,2.53
2018-01-07T06:48:13.785Z,1.43
2018-01-07T06:50:41.561Z,1.03
2018-01-07T06:53:09.013Z,2.03
2018-01-07T06:55:36.784Z,3.10
2018-01-07T06:58:04.563Z,1.50
2018-01-07T07:00:32.198Z,0.80
2018-01-07T07:02:59.657Z,1.73
2018-01-07T07:05:27.143Z,0.83
2018-01-07T07:07:54.606Z,1.37
2018-01-07T07:10:23.088Z,2.27
2018-01-07T07:12:50.569Z,0.97
2018-01-07T07:15:18.289Z,0.60
2018-01-07T07:17:45.749Z,2.27
2018-01-07T07:20:13.378Z,1.50
2018-01-07T07:22:40.846Z,2.03
2018-01-07T07:25:08.290Z,1.20
2018-01-07T07:27:35.905Z,2.90
2018-01-07T07:30:03.656Z,1.73
2018-01-07T07:32:31.413Z,1.23
2018-01-07T07:34:59.179Z,2.00
2018-01-07T07:37:26.954Z,1.80
2018-01-07T07:39:54.577Z,1.50
2018-01-07T07:42:22.070Z,1.13
2018-01-07T07:44:49.623Z,3.43
2018-01-07T07:47:17.075Z,0.80
2018-01-07T07:49:44.724Z,1.50
2018-01-07T07:52:12.180Z,1.13
2018-01-07T07:54:39.665Z,2.80
2018-01-07T07:57:07.122Z,4.50
2018-01-07T07:59:35.505Z,2.80
2018-01-07T08:02:02.969Z,2.43
2018-01-07T08:04:31.305Z,3.83
2018-01-07T08:06:58.893Z,1.97
2018-01-07T08:09:26.530Z,2.13
2018-01-07T08:11:53.981Z,1.10
2018-01-07T08:14:21.513Z,1.53
2018-01-07T08:16:49.033Z,1.77
2018-01-07T08:19:16.813Z,2.90
2018-01-07T08:21:44.424Z,5.33
2018-01-07T08:24:11.921Z,4.13
2018-01-07T08:26:39.491Z,3.13
2018-01-07T08:29:07.137Z,7.97
2018-01-07T08:31:34.610Z,6.80
2018-01-07T08:34:02.069Z,7.23
2018-01-07T08:36:29.521Z,6.47
2018-01-07T08:38:57.081Z,8.20
2018-01-07T08:41:24.540Z,6.57
2018-01-07T08:43:52.298Z,3.37
2018-01-07T08:46:19.929Z,5.17
2018-01-07T08:48:47.530Z,6.00
2018-01-07T08:51:15.109Z,5.23
2018-01-07T08:53:42.565Z,5.30
2018-01-07T08:56:10.077Z,12.93
2018-01-07T08:58:37.683Z,7.03
2018-01-07T09:01:05.290Z,12.77
2018-01-07T09:03:32.756Z,10.97
2018-01-07T09:06:00.350Z,6.80
2018-01-07T09:08:27.984Z,13.48
2018-01-07T09:10:55.493Z,17.27
2018-01-07T09:13:23.025Z,15.80
2018-01-07T09:15:50.788Z,23.53
2018-01-07T09:18:18.560Z,12.07
2018-01-07T09:20:46.211Z,10.93
2018-01-07T09:23:13.776Z,9.20
2018-01-07T09:25:41.429Z,12.83
2018-01-07T09:28:08.883Z,7.97
2018-01-07T09:30:36.409Z,7.93
2018-01-07T09:33:03.929Z,5.73
2018-01-07T09:37:02.514Z,9.77
2018-01-07T09:39:30.038Z,17.23
2018-01-07T09:41:57.545Z,10.80
2018-01-07T09:44:25.313Z,10.57
2018-01-07T09:46:52.785Z,9.33
2018-01-07T09:49:20.425Z,8.33
2018-01-07T09:51:47.981Z,7.90
2018-01-07T09:54:15.525Z,6.13
2018-01-07T09:56:42.998Z,10.30
2018-01-07T09:59:10.557Z,3.70
2018-01-07T10:01:38.119Z,4.57
2018-01-07T10:04:05.887Z,7.17
2018-01-07T10:06:33.343Z,7.57
2018-01-07T10:09:00.982Z,10.90
2018-01-07T10:11:28.475Z,11.63
2018-01-07T10:13:55.927Z,14.57
2018-01-07T10:16:23.384Z,14.47
2018-01-07T10:18:50.832Z,12.13
2018-01-07T10:21:18.294Z,12.67
2018-01-07T10:23:45.745Z,21.80
2018-01-07T10:26:13.208Z,19.40
2018-01-07T10:28:40.761Z,23.60
2018-01-07T10:31:08.393Z,27.07
2018-01-07T10:33:35.857Z,25.40
2018-01-07T10:36:03.352Z,19.60
2018-01-07T10:38:30.850Z,32.67
2018-01-07T10:40:58.407Z,23.13
2018-01-07T10:43:26.034Z,26.20
2018-01-07T10:45:53.505Z,26.10
2018-01-07T10:48:21.739Z,39.13
2018-01-07T10:50:49.182Z,27.33
2018-01-07T10:53:16.772Z,19.40
2018-01-07T10:55:44.225Z,30.13
2018-01-07T10:58:11.702Z,17.77
2018-01-07T11:00:44.969Z,19.50
2018-01-07T11:03:12.471Z,27.83
2018-01-07T11:05:39.916Z,18.53
2018-01-07T11:08:07.388Z,34.17
2018-01-07T11:10:34.922Z,21.90
2018-01-07T11:13:02.743Z,19.27
2018-01-07T11:15:30.146Z,20.93
2018-01-07T11:17:57.621Z,25.10
2018-01-07T11:20:25.089Z,24.57
2018-01-07T11:22:52.829Z,21.23
2018-01-07T11:25:20.305Z,18.10
2018-01-07T11:27:47.779Z,22.63
2018-01-07T11:30:15.430Z,15.83
2018-01-07T11:32:43.865Z,22.93
2018-01-07T11:35:11.525Z,16.20
2018-01-07T11:37:38.973Z,23.60
2018-01-07T11:40:06.437Z,22.73
2018-01-07T11:42:33.945Z,23.37
2018-01-07T11:45:01.394Z,13.77
2018-01-07T11:47:28.944Z,21.13
2018-01-07T11:49:56.596Z,25.27
2018-01-07T11:52:24.113Z,19.50
2018-01-07T11:54:51.581Z,19.10
2018-01-07T11:57:19.025Z,14.60
2018-01-07T11:59:46.507Z,19.33
2018-01-07T12:02:13.954Z,16.43
2018-01-07T12:04:41.424Z,18.03
2018-01-07T12:07:08.942Z,14.27
2018-01-07T12:09:36.393Z,16.37
2018-01-07T12:12:04.016Z,13.17
2018-01-07T12:14:31.597Z,16.27
2018-01-07T12:16:59.282Z,16.10
2018-01-07T12:19:26.681Z,15.07
2018-01-07T12:21:54.301Z,11.70
2018-01-07T12:24:21.752Z,14.17
2018-01-07T12:26:49.382Z,15.10
2018-01-07T12:29:16.840Z,12.90
2018-01-07T12:31:44.314Z,15.17
2018-01-07T12:34:11.776Z,14.40
2018-01-07T12:36:39.253Z,20.07
2018-01-07T12:39:06.799Z,16.90
2018-01-07T12:41:34.252Z,15.67
2018-01-07T12:44:02.074Z,10.17
2018-01-07T12:46:29.559Z,12.70
2018-01-07T12:48:57.883Z,13.97
2018-01-07T12:51:25.577Z,14.50
2018-01-07T12:53:53.396Z,12.67
2018-01-07T12:56:20.911Z,14.47
2018-01-07T12:58:48.470Z,11.77
2018-01-07T13:01:15.941Z,10.00
2018-01-07T13:03:43.389Z,8.50
2018-01-07T13:06:10.862Z,15.03
2018-01-07T13:08:38.310Z,10.17
2018-01-07T13:11:05.761Z,10.33
2018-01-07T13:13:33.248Z,15.03
2018-01-07T13:16:00.715Z,14.00
2018-01-07T13:18:28.945Z,15.77
2018-01-07T13:20:56.557Z,9.23
2018-01-07T13:23:25.021Z,15.87
2018-01-07T13:25:52.657Z,15.70
2018-01-07T13:28:20.166Z,8.67
2018-01-07T13:30:48.524Z,16.07
2018-01-07T13:33:15.987Z,14.97
2018-01-07T13:35:43.452Z,11.57
2018-01-07T13:38:11.005Z,10.63
2018-01-07T13:40:38.561Z,12.20
2018-01-07T13:43:06.047Z,20.60
2018-01-07T13:45:33.713Z,14.50
2018-01-07T13:48:01.455Z,12.60
2018-01-07T13:50:29.227Z,13.67
2018-01-07T13:52:56.870Z,13.23
2018-01-07T13:55:24.348Z,14.23
2018-01-07T13:57:51.932Z,12.00
2018-01-07T14:00:19.385Z,10.80
2018-01-07T14:02:47.232Z,7.33
2018-01-07T14:05:14.969Z,13.03
2018-01-07T14:07:42.449Z,9.90
2018-01-07T14:10:10.025Z,11.10
2018-01-07T14:12:37.484Z,11.07
2018-01-07T14:15:05.008Z,7.60
2018-01-07T14:17:32.457Z,11.27
2018-01-07T14:19:59.938Z,12.37
2018-01-07T14:22:27.576Z,11.83
2018-01-07T14:24:55.095Z,8.40
2018-01-07T14:27:22.615Z,11.63
2018-01-07T14:29:50.386Z,16.30
2018-01-07T14:32:17.836Z,8.40
2018-01-07T14:34:45.299Z,7.20
2018-01-07T14:37:12.754Z,13.60
2018-01-07T14:39:40.416Z,12.07
2018-01-07T14:42:07.872Z,10.50
2018-01-07T14:44:35.360Z,8.40
2018-01-07T14:47:02.816Z,12.80
2018-01-07T14:49:30.362Z,13.27
2018-01-07T14:51:57.834Z,9.47
2018-01-07T14:54:25.297Z,8.70
2018-01-07T14:56:53.024Z,6.03
2018-01-07T14:59:20.521Z,10.53
2018-01-07T15:01:48.264Z,7.53
2018-01-07T15:04:16.008Z,8.77
2018-01-07T15:06:43.473Z,12.33
2018-01-07T15:09:10.955Z,8.23
2018-01-07T15:11:38.402Z,9.40
2018-01-07T15:14:06.025Z,8.00
2018-01-07T15:16:33.567Z,10.97
2018-01-07T15:19:01.018Z,11.43
2018-01-07T15:21:28.490Z,14.67
2018-01-07T15:23:55.992Z,7.73
2018-01-07T15:26:23.418Z,11.67
2018-01-07T15:28:50.915Z,8.60
2018-01-07T15:31:18.361Z,8.80
2018-01-07T15:33:45.829Z,7.50
2018-01-07T15:36:13.306Z,7.13
2018-01-07T15:38:40.916Z,7.17
2018-01-07T15:41:08.382Z,4.80
2018-01-07T15:43:35.839Z,8.00
2018-01-07T15:46:03.322Z,12.87
2018-01-07T15:48:30.774Z,3.67
2018-01-07T15:50:58.337Z,11.10
2018-01-07T15:53:25.801Z,6.30
2018-01-07T15:55:53.267Z,6.80
2018-01-07T15:58:20.932Z,6.90
2018-01-07T16:00:48.397Z,6.67
2018-01-07T16:03:15.871Z,5.97
2018-01-07T16:05:43.400Z,6.00
2018-01-07T16:08:11.037Z,8.27
2018-01-07T16:10:38.530Z,6.00
2018-01-07T16:13:07.005Z,5.40
2018-01-07T16:15:34.537Z,5.97
2018-01-07T16:18:02.133Z,5.67
2018-01-07T16:20:29.606Z,6.77
2018-01-07T16:22:57.821Z,3.20
2018-01-07T16:25:25.310Z,7.60
2018-01-07T16:27:52.905Z,5.10
2018-01-07T16:30:20.428Z,5.63
2018-01-07T16:32:48.205Z,6.63
2018-01-07T16:35:15.733Z,4.93
2018-01-07T16:37:43.199Z,4.90
2018-01-07T16:40:10.877Z,9.30
2018-01-07T16:42:38.337Z,6.70
2018-01-07T16:45:05.975Z,6.90
2018-01-07T16:47:35.944Z,4.10
2018-01-07T16:50:03.398Z,4.90
2018-01-07T16:52:30.859Z,4.57
2018-01-07T16:54:58.318Z,4.77
2018-01-07T16:57:25.860Z,8.13
2018-01-07T16:59:53.313Z,6.43
2018-01-07T17:02:22.274Z,7.43
2018-01-07T17:04:49.736Z,4.97
2018-01-07T17:07:17.249Z,6.17
2018-01-07T17:09:44.985Z,6.67
2018-01-07T17:12:12.744Z,4.73
2018-01-07T17:14:40.522Z,5.73
2018-01-07T17:17:07.969Z,4.37
2018-01-07T17:19:35.618Z,8.27
2018-01-07T17:22:03.073Z,9.00
2018-01-07T17:24:30.598Z,6.87
2018-01-07T17:26:58.060Z,5.23
2018-01-07T17:29:25.585Z,3.73
2018-01-07T17:31:53.042Z,6.00
2018-01-07T17:34:20.794Z,7.13
2018-01-07T17:36:48.246Z,7.43
2018-01-07T17:39:15.893Z,6.17
2018-01-07T17:41:43.351Z,7.80
2018-01-07T17:44:10.841Z,7.93
2018-01-07T17:46:38.292Z,7.40
2018-01-07T17:49:05.767Z,6.57
2018-01-07T17:51:33.217Z,7.90
2018-01-07T17:54:00.667Z,6.03
2018-01-07T17:56:28.158Z,7.00
2018-01-07T17:58:55.605Z,8.37
2018-01-07T18:01:23.078Z,2.60
2018-01-07T18:03:50.600Z,6.87
2018-01-07T18:06:18.248Z,7.07
2018-01-07T18:08:45.706Z,8.40
2018-01-07T18:11:13.203Z,5.83
2018-01-07T18:13:40.727Z,8.80
2018-01-07T18:16:08.386Z,11.87
2018-01-07T18:18:35.881Z,12.93
2018-01-07T18:21:03.406Z,8.27
2018-01-07T18:23:30.870Z,10.00
2018-01-07T18:25:58.373Z,10.93
2018-01-07T18:28:25.963Z,8.47
2018-01-07T18:30:53.472Z,9.83
2018-01-07T18:33:20.922Z,7.97
2018-01-07T18:35:49.272Z,11.13
2018-01-07T18:38:16.758Z,11.87
2018-01-07T18:40:44.309Z,15.53
2018-01-07T18:43:12.017Z,51.83
2018-01-07T18:45:39.570Z,41.17
2018-01-07T18:48:07.037Z,38.17
2018-01-07T18:50:34.494Z,28.30
2018-01-07T18:53:02.122Z,28.57
2018-01-07T18:55:29.583Z,25.50
2018-01-07T18:57:57.041Z,33.87
2018-01-07T19:00:25.273Z,25.20
2018-01-07T19:02:52.750Z,23.73
2018-01-07T19:05:20.213Z,26.70
2018-01-07T19:07:47.764Z,26.60
2018-01-07T19:10:15.229Z,22.47
2018-01-07T19:12:42.812Z,19.87
2018-01-07T19:15:10.271Z,22.13
2018-01-07T19:17:37.729Z,23.90
2018-01-07T19:20:05.318Z,21.80
2018-01-07T19:22:33.540Z,18.40
2018-01-07T19:25:01.196Z,15.60
2018-01-07T19:27:28.672Z,19.20
2018-01-07T19:29:56.248Z,19.50
2018-01-07T19:32:23.718Z,18.73
2018-01-07T19:34:51.380Z,22.40
2018-01-07T19:37:18.929Z,20.40
2018-01-07T19:39:46.389Z,21.00
2018-01-07T19:42:13.857Z,17.70
2018-01-07T19:44:41.505Z,18.33
2018-01-07T19:47:08.966Z,16.17
2018-01-07T19:49:36.426Z,20.20
2018-01-07T19:52:03.874Z,15.30
2018-01-07T19:54:32.111Z,24.57
2018-01-07T19:56:59.595Z,19.60
2018-01-07T19:59:27.268Z,20.07
2018-01-07T20:01:54.710Z,14.17
2018-01-07T20:04:22.181Z,21.03
2018-01-07T20:06:49.949Z,15.27
2018-01-07T20:09:17.417Z,15.20
2018-01-07T20:11:44.910Z,15.63
2018-01-07T20:14:12.559Z,20.00
2018-01-07T20:16:40.026Z,14.90
2018-01-07T20:19:07.533Z,22.43
2018-01-07T20:21:35.194Z,14.23
2018-01-07T20:24:02.673Z,14.97
2018-01-07T20:26:30.918Z,15.03
2018-01-07T20:28:58.390Z,13.67
2018-01-07T20:31:26.067Z,16.60
2018-01-07T20:33:53.726Z,12.83
2018-01-07T20:36:21.209Z,13.53
2018-01-07T20:38:48.663Z,12.17
2018-01-07T20:41:16.133Z,15.57
2018-01-07T20:43:43.583Z,14.13
2018-01-07T20:46:11.039Z,14.57
2018-01-07T20:48:38.492Z,12.57
2018-01-07T20:51:05.960Z,10.70
2018-01-07T20:53:33.494Z,16.40
2018-01-07T20:56:01.264Z,15.33
2018-01-07T20:58:28.885Z,18.10
2018-01-07T21:00:56.362Z,13.70
2018-01-07T21:03:23.841Z,15.00
2018-01-07T21:05:55.248Z,15.23
2018-01-07T21:08:23.584Z,23.57
2018-01-07T21:10:51.830Z,16.73
2018-01-07T21:13:19.285Z,20.30
2018-01-07T21:15:47.081Z,16.47
2018-01-07T21:18:14.533Z,15.43
2018-01-07T21:20:42.205Z,13.73
2018-01-07T21:23:09.652Z,19.17
2018-01-07T21:25:38.065Z,13.53
2018-01-07T21:28:05.537Z,14.33
2018-01-07T21:30:33.049Z,14.47
2018-01-07T21:33:00.512Z,5.93
2018-01-07T21:35:27.964Z,4.77
2018-01-07T21:37:55.422Z,3.37
2018-01-07T21:40:23.055Z,3.47
2018-01-07T21:42:50.515Z,2.80
2018-01-07T21:45:18.098Z,3.50
2018-01-07T21:47:45.578Z,3.90
2018-01-07T21:50:13.051Z,3.77
2018-01-07T21:52:40.540Z,3.30
2018-01-07T21:55:08.001Z,4.33
2018-01-07T21:57:35.465Z,4.23
2018-01-07T22:03:23.412Z,3.33
2018-01-07T22:06:06.591Z,5.43
2018-01-07T22:08:34.209Z,2.47
2018-01-07T22:11:01.662Z,4.43
2018-01-07T22:13:29.175Z,2.60
2018-01-07T22:15:56.667Z,2.80
2018-01-07T22:18:24.129Z,4.30
2018-01-07T22:20:51.628Z,3.33
2018-01-07T22:23:19.089Z,2.40
2018-01-07T22:25:46.568Z,4.37
2018-01-07T22:28:14.315Z,2.30
2018-01-07T22:30:41.777Z,3.37
2018-01-07T22:33:09.489Z,2.70
2018-01-07T22:35:36.981Z,3.83
2018-01-07T22:38:04.461Z,6.63
2018-01-07T22:40:31.925Z,4.00
2018-01-07T22:42:59.678Z,3.10
2018-01-07T22:45:27.446Z,4.13
2018-01-07T22:48:13.641Z,5.20
2018-01-07T22:50:41.112Z,3.77
2018-01-07T22:53:08.570Z,4.60
2018-01-07T22:55:36.225Z,4.10
2018-01-07T22:58:03.700Z,3.67
2018-01-07T23:00:31.185Z,3.83
2018-01-07T23:02:58.735Z,3.67
2018-01-07T23:05:26.442Z,5.60
2018-01-07T23:07:53.892Z,3.57
2018-01-07T23:10:21.363Z,2.40
2018-01-07T23:12:48.824Z,3.17
2018-01-07T23:15:16.297Z,3.80
2018-01-07T23:17:43.953Z,2.53
2018-01-07T23:20:11.424Z,2.67
2018-01-07T23:22:38.968Z,3.87
2018-01-07T23:25:06.430Z,3.73
2018-01-07T23:27:34.187Z,2.30
2018-01-07T23:30:01.828Z,3.30
2018-01-07T23:32:29.416Z,2.63
2018-01-07T23:34:57.068Z,3.23
2018-01-07T23:37:24.525Z,2.30
2018-01-07T23:39:52.255Z,3.30
2018-01-07T23:42:19.750Z,2.80
2018-01-07T23:44:47.200Z,2.50
2018-01-07T23:47:14.706Z,4.93
2018-01-07T23:49:42.160Z,2.17
2018-01-07T23:52:09.622Z,3.33
2018-01-07T23:54:37.071Z,3.37
2018-01-07T23:57:04.536Z,4.10
2018-01-07T23:59:31.995Z,3.20
